Time;durP1;ratioP1;P1;durP2;ratioP2;P2;SDS_P1;SDS_P2;PMS_P1;PMS_P2;Temp;Humidity;BMP_temperature;BMP_pressure;BME280_temperature;BME280_humidity;BME280_pressure;Samples;Min_cycle;Max_cycle;Signal;HPM_P1;HPM_P2
2020/12/31 00:00:23;;;;;;;37.80;18.87;;;;;;;2.89;89.23;99736.47;5071635;28;20036;-66
2020/12/31 00:02:48;;;;;;;53.20;21.07;;;;;;;2.87;89.28;99739.22;5072242;28;20101;-66
2020/12/31 00:05:13;;;;;;;34.00;18.87;;;;;;;2.88;89.15;99729.50;5071403;28;20032;-66
2020/12/31 00:07:40;;;;;;;38.13;19.13;;;;;;;2.91;88.75;99727.44;5071196;28;20032;-66
2020/12/31 00:10:05;;;;;;;31.27;17.30;;;;;;;2.92;88.88;99731.72;5071488;28;20036;-66
2020/12/31 00:12:30;;;;;;;30.90;16.93;;;;;;;2.96;88.83;99727.84;5071276;28;20041;-66
2020/12/31 00:14:56;;;;;;;32.43;17.37;;;;;;;3.03;88.05;99729.94;5071438;28;20036;-66
2020/12/31 00:17:21;;;;;;;36.80;16.73;;;;;;;3.05;87.89;99725.38;5070851;28;20051;-66
2020/12/31 00:19:46;;;;;;;32.60;17.00;;;;;;;3.03;87.92;99729.94;5071142;28;20103;-66
2020/12/31 00:22:12;;;;;;;32.63;16.33;;;;;;;3.02;87.87;99728.25;5054562;28;20107;-66
2020/12/31 00:24:37;;;;;;;37.43;18.07;;;;;;;3.00;87.81;99730.19;5072239;28;20373;-66
2020/12/31 00:27:03;;;;;;;31.20;17.27;;;;;;;3.03;88.12;99729.94;5070752;28;20572;-66
2020/12/31 00:29:28;;;;;;;28.13;15.38;;;;;;;3.03;88.03;99738.69;5072057;28;20028;-66
2020/12/31 00:31:54;;;;;;;35.80;17.27;;;;;;;3.04;88.11;99735.06;5071013;28;20044;-66
2020/12/31 00:34:19;;;;;;;27.90;15.47;;;;;;;3.08;87.82;99739.09;5054109;28;20047;-66
2020/12/31 00:36:46;;;;;;;35.53;15.03;;;;;;;3.08;88.03;99739.09;5071632;28;20111;-66
2020/12/31 00:39:12;;;;;;;30.25;15.18;;;;;;;3.08;87.99;99741.72;5070594;28;20037;-66
2020/12/31 00:41:37;;;;;;;31.03;15.13;;;;;;;3.11;87.62;99743.25;5071790;28;20043;-66
2020/12/31 00:44:04;;;;;;;25.20;13.32;;;;;;;3.12;87.54;99742.28;5071474;28;20033;-66
2020/12/31 00:46:30;;;;;;;23.60;15.30;;;;;;;3.06;87.53;99730.47;5071403;28;20048;-66
2020/12/31 00:48:55;;;;;;;23.33;12.70;;;;;;;3.11;87.21;99740.63;5070617;28;20052;-66
2020/12/31 00:51:20;;;;;;;24.47;13.83;;;;;;;3.09;87.08;99743.41;5054084;28;20036;-66
2020/12/31 00:53:46;;;;;;;27.67;13.35;;;;;;;3.11;87.50;99749.38;5053686;28;20028;-66
2020/12/31 00:56:16;;;;;;;25.02;14.50;;;;;;;3.13;87.35;99755.31;5070330;28;20038;-66
2020/12/31 00:58:41;;;;;;;28.57;14.30;;;;;;;3.15;87.26;99747.28;5070293;28;20032;-67
2020/12/31 01:01:07;;;;;;;20.70;11.63;;;;;;;3.16;87.28;99747.16;5070498;28;20347;-67
2020/12/31 01:03:32;;;;;;;26.30;12.43;;;;;;;3.14;87.35;99751.72;5070215;28;20485;-67
2020/12/31 01:05:57;;;;;;;23.13;11.37;;;;;;;3.13;87.18;99752.69;5070274;28;20029;-66
2020/12/31 01:08:25;;;;;;;21.87;11.50;;;;;;;3.14;87.18;99754.38;5070480;28;20047;-66
2020/12/31 01:10:50;;;;;;;18.50;11.27;;;;;;;3.16;86.96;99759.50;5069872;28;20102;-66
2020/12/31 01:13:15;;;;;;;17.80;10.90;;;;;;;3.13;87.35;99755.31;5071355;28;20734;-66
2020/12/31 01:15:41;;;;;;;22.20;12.73;;;;;;;3.15;87.37;99747.28;5069866;28;20067;-66
2020/12/31 01:18:06;;;;;;;23.13;12.10;;;;;;;3.12;87.34;99758.13;5070174;28;20040;-66
2020/12/31 01:20:31;;;;;;;24.20;11.77;;;;;;;3.15;87.42;99760.47;5070308;28;20036;-66
2020/12/31 01:22:57;;;;;;;25.07;12.87;;;;;;;3.10;87.41;99765.34;5070461;28;20082;-66
2020/12/31 01:25:22;;;;;;;27.57;13.10;;;;;;;3.10;86.94;99765.34;5070316;28;20055;-66
2020/12/31 01:27:47;;;;;;;20.40;11.30;;;;;;;3.12;87.26;99766.03;5069964;28;20036;-67
2020/12/31 01:30:13;;;;;;;23.67;13.03;;;;;;;3.11;86.89;99769.63;5070227;28;20461;-67
2020/12/31 01:32:38;;;;;;;25.63;11.83;;;;;;;3.13;86.58;99772.97;5070989;28;20451;-67
2020/12/31 01:35:04;;;;;;;23.13;10.13;;;;;;;3.14;86.55;99764.09;5070030;28;20040;-67
2020/12/31 01:37:29;;;;;;;20.42;12.27;;;;;;;3.14;86.36;99764.09;5070807;28;20036;-67
2020/12/31 01:39:54;;;;;;;27.23;13.57;;;;;;;3.15;86.61;99768.38;5070199;28;20044;-67
2020/12/31 01:42:20;;;;;;;23.77;10.37;;;;;;;3.16;86.27;99784.09;5069859;28;20052;-67
2020/12/31 01:44:45;;;;;;;19.77;10.70;;;;;;;3.17;86.29;99777.00;5071044;28;20028;-71
2020/12/31 01:47:13;;;;;;;24.23;11.17;;;;;;;3.14;86.40;99779.91;5069744;28;20347;-71
2020/12/31 01:49:39;;;;;;;18.77;10.77;;;;;;;3.12;86.52;99781.84;5070066;28;20033;-71
2020/12/31 01:52:05;;;;;;;;;;;;;;;3.11;86.43;99780.19;5070360;28;20123;-71
2020/12/31 01:54:30;;;;;;;16.67;10.18;;;;;;;3.07;86.56;99777.00;5070991;28;20069;-71
2020/12/31 01:56:57;;;;;;;20.00;11.53;;;;;;;3.07;86.49;99781.44;5070624;28;20093;-71
2020/12/31 01:59:23;;;;;;;21.20;12.98;;;;;;;3.10;86.60;99783.81;5069935;28;20075;-71
2020/12/31 02:01:49;;;;;;;19.25;11.73;;;;;;;3.09;85.96;99774.19;5074180;28;20471;-71
2020/12/31 02:04:15;;;;;;;21.27;11.32;;;;;;;3.03;86.21;99775.59;5073736;28;20051;-71
2020/12/31 02:06:42;;;;;;;18.45;11.32;;;;;;;3.06;86.11;99779.75;5074298;28;20121;-71
2020/12/31 02:09:07;;;;;;;21.88;10.82;;;;;;;3.10;85.89;99781.16;5074593;28;20040;-71
2020/12/31 02:11:33;;;;;;;19.20;11.25;;;;;;;3.12;85.97;99780.06;5073685;28;20033;-71
2020/12/31 02:13:58;;;;;;;15.97;10.37;;;;;;;3.08;85.38;99783.94;5056672;28;20133;-71
2020/12/31 02:16:26;;;;;;;17.43;10.27;;;;;;;3.09;85.45;99782.97;5074006;28;20075;-71
2020/12/31 02:19:29;;;;;;;18.98;10.63;;;;;;;3.14;85.31;99788.66;5073988;28;20036;-71
2020/12/31 02:21:55;;;;;;;17.17;10.23;;;;;;;3.05;85.35;99786.84;5052331;28;20049;-71
2020/12/31 02:24:20;;;;;;;19.47;9.30;;;;;;;3.08;85.41;99786.56;5052497;28;20078;-71
2020/12/31 02:26:48;;;;;;;17.13;9.27;;;;;;;3.09;84.90;99792.66;5062064;28;20465;-71
2020/12/31 02:29:15;;;;;;;16.50;9.85;;;;;;;3.07;84.76;99792.00;5074374;28;20032;-71
2020/12/31 02:31:42;;;;;;;17.02;9.70;;;;;;;3.04;84.44;99782.53;5073352;28;20032;-71
2020/12/31 02:34:08;;;;;;;18.80;9.85;;;;;;;3.03;85.00;99795.88;5073951;28;20489;-71
2020/12/31 02:36:36;;;;;;;16.25;10.20;;;;;;;2.99;84.76;99789.19;5056276;28;20492;-71
2020/12/31 02:39:05;;;;;;;13.07;8.95;;;;;;;2.98;84.53;99783.09;5073823;28;20447;-71
2020/12/31 02:41:31;;;;;;;16.88;9.73;;;;;;;2.94;84.61;99779.88;5074067;28;20094;-70
2020/12/31 02:43:56;;;;;;;16.33;8.88;;;;;;;2.95;84.81;99784.22;5072954;28;20040;-70
2020/12/31 02:46:22;;;;;;;15.77;8.37;;;;;;;2.98;84.35;99787.53;5072720;28;20076;-71
2020/12/31 02:48:49;;;;;;;13.37;9.17;;;;;;;3.00;84.49;99782.94;5073782;28;20114;-71
2020/12/31 02:51:16;;;;;;;17.17;9.35;;;;;;;2.99;84.20;99783.91;5073830;28;20036;-71
2020/12/31 02:53:41;;;;;;;15.15;9.20;;;;;;;2.98;84.34;99796.28;5073605;28;20509;-71
2020/12/31 02:56:14;;;;;;;15.67;8.70;;;;;;;2.97;84.35;99784.06;5073482;28;20182;-71
2020/12/31 02:58:40;;;;;;;14.23;8.32;;;;;;;2.99;84.07;99783.91;5073619;28;20473;-71
2020/12/31 03:01:09;;;;;;;12.70;8.05;;;;;;;2.93;84.12;99796.69;5073841;28;20462;-71
2020/12/31 03:03:35;;;;;;;11.10;7.80;;;;;;;2.95;83.61;99800.03;5073783;28;20055;-71
2020/12/31 03:06:01;;;;;;;13.65;7.30;;;;;;;2.96;83.08;99801.69;5073060;28;20098;-71
2020/12/31 03:08:26;;;;;;;12.80;6.53;;;;;;;2.91;82.56;99796.00;5072443;28;20036;-71
2020/12/31 03:10:54;;;;;;;12.93;7.87;;;;;;;2.92;82.41;99794.19;5073368;28;20098;-71
2020/12/31 03:13:20;;;;;;;9.80;6.43;;;;;;;2.89;82.40;99799.72;5072330;28;20040;-71
2020/12/31 03:15:45;;;;;;;10.57;6.07;;;;;;;2.89;82.39;99799.72;5072239;28;20047;-71
2020/12/31 03:18:11;;;;;;;12.23;7.37;;;;;;;2.88;82.99;99798.91;5073094;28;20036;-72
2020/12/31 03:20:43;;;;;;;11.63;7.55;;;;;;;2.84;82.83;99791.41;5072384;28;20032;-71
2020/12/31 03:23:09;;;;;;;12.48;6.85;;;;;;;2.87;82.54;99788.47;5073366;28;20079;-71
2020/12/31 03:25:34;;;;;;;17.35;8.25;;;;;;;2.86;82.87;99794.75;5072882;28;20482;-71
2020/12/31 03:28:00;;;;;;;17.87;8.03;;;;;;;2.87;82.51;99802.50;5073112;28;20033;-71
2020/12/31 03:30:25;;;;;;;18.23;8.03;;;;;;;2.82;82.78;99793.34;5073223;28;20342;-71
2020/12/31 03:32:50;;;;;;;13.37;8.13;;;;;;;2.85;82.59;99803.59;5072946;28;20477;-71
2020/12/31 03:35:16;;;;;;;13.90;7.83;;;;;;;2.85;82.62;99793.88;5072120;28;20041;-71
2020/12/31 03:37:41;;;;;;;16.80;8.20;;;;;;;2.86;83.10;99800.84;5072633;28;20032;-71
2020/12/31 03:40:06;;;;;;;16.90;8.03;;;;;;;2.85;83.12;99804.44;5072829;28;20094;-71
2020/12/31 03:42:31;;;;;;;14.47;8.80;;;;;;;2.87;83.34;99802.50;5055269;28;20044;-71
2020/12/31 03:44:57;;;;;;;13.87;7.63;;;;;;;2.84;83.56;99802.78;5072817;28;20040;-71
2020/12/31 03:47:22;;;;;;;15.87;9.10;;;;;;;2.87;83.13;99799.84;5072588;28;20040;-71
2020/12/31 03:49:50;;;;;;;12.67;8.07;;;;;;;2.86;82.88;99800.84;5055017;28;20036;-71
2020/12/31 03:52:15;;;;;;;13.07;8.50;;;;;;;2.91;83.29;99803.06;5071730;28;20468;-71
2020/12/31 03:54:41;;;;;;;15.82;9.98;;;;;;;2.86;83.03;99800.00;5072582;28;20032;-71
2020/12/31 03:57:06;;;;;;;19.97;9.87;;;;;;;2.88;83.34;99806.81;5072439;28;20447;-71
2020/12/31 03:59:31;;;;;;;19.73;10.97;;;;;;;2.92;83.45;99800.28;5072601;28;20725;-71
2020/12/31 04:01:56;;;;;;;19.97;11.03;;;;;;;2.90;82.73;99796.97;5071602;28;20474;-71
2020/12/31 04:04:22;;;;;;;19.90;10.80;;;;;;;2.85;82.86;99801.78;5072383;28;20489;-71
2020/12/31 04:06:49;;;;;;;21.83;11.07;;;;;;;2.86;83.19;99792.94;5071132;28;20042;-71
2020/12/31 04:09:14;;;;;;;20.05;11.60;;;;;;;2.85;83.20;99801.78;5072301;28;20123;-71
2020/12/31 04:11:39;;;;;;;21.63;12.47;;;;;;;2.83;82.32;99795.81;5072297;28;20119;-71
2020/12/31 04:14:04;;;;;;;26.63;12.93;;;;;;;2.80;82.35;99798.72;5071420;28;20115;-71
2020/12/31 04:16:30;;;;;;;24.50;14.30;;;;;;;2.81;82.83;99808.34;5070936;28;20064;-71
2020/12/31 04:18:55;;;;;;;27.43;13.90;;;;;;;2.81;83.30;99800.41;5054589;28;20072;-71
2020/12/31 04:21:21;;;;;;;26.90;14.77;;;;;;;2.78;82.74;99803.31;5071856;28;20033;-71
2020/12/31 04:23:48;;;;;;;26.45;14.63;;;;;;;2.74;82.64;99807.22;5070925;28;20663;-71
2020/12/31 04:26:13;;;;;;;29.35;14.32;;;;;;;2.76;82.88;99810.50;5071557;28;20039;-72
2020/12/31 04:28:39;;;;;;;24.33;13.57;;;;;;;2.71;82.81;99808.28;5072073;28;20025;-71
2020/12/31 04:31:04;;;;;;;29.87;15.83;;;;;;;2.69;82.69;99818.16;5071983;28;20450;-71
2020/12/31 04:33:29;;;;;;;38.37;18.57;;;;;;;2.71;82.88;99818.81;5071002;28;20093;-71
2020/12/31 04:35:55;;;;;;;32.00;18.80;;;;;;;2.68;82.52;99815.63;5070645;28;20127;-72
2020/12/31 04:38:20;;;;;;;28.07;15.40;;;;;;;2.65;82.88;99818.56;5070754;28;20178;-71
2020/12/31 04:40:45;;;;;;;34.33;17.13;;;;;;;2.63;82.70;99821.31;5070842;28;20043;-72
2020/12/31 04:43:11;;;;;;;33.17;17.93;;;;;;;2.61;82.80;99831.16;5071440;28;20036;-72
2020/12/31 04:45:39;;;;;;;35.22;17.77;;;;;;;2.70;82.77;99832.16;5071529;28;20028;-72
2020/12/31 04:48:37;;;;;;;33.08;18.85;;;;;;;2.69;82.40;99828.69;5071507;28;20033;-71
2020/12/31 04:51:06;;;;;;;31.27;16.73;;;;;;;2.63;82.19;99826.59;5053782;28;20351;-71
2020/12/31 04:53:32;;;;;;;34.97;19.67;;;;;;;2.60;82.67;99833.91;5070502;28;20039;-71
2020/12/31 04:56:01;;;;;;;42.28;19.02;;;;;;;2.59;83.02;99832.25;5071286;28;20033;-71
2020/12/31 04:58:26;;;;;;;37.28;19.40;;;;;;;2.62;82.83;99839.88;5070203;28;20039;-72
2020/12/31 05:00:52;;;;;;;37.30;19.42;;;;;;;2.61;82.86;99833.78;5070274;28;20036;-72
2020/12/31 05:03:17;;;;;;;40.23;19.47;;;;;;;2.60;83.00;99836.53;5070151;28;20068;-72
2020/12/31 05:05:44;;;;;;;39.70;20.40;;;;;;;2.63;83.20;99841.56;5071319;28;20064;-72
2020/12/31 05:08:11;;;;;;;35.92;19.00;;;;;;;2.59;83.26;99841.00;5071224;28;20040;-71
2020/12/31 05:10:36;;;;;;;47.97;21.15;;;;;;;2.58;83.14;99834.06;5071436;28;20043;-71
2020/12/31 05:13:07;;;;;;;43.23;20.97;;;;;;;2.59;83.23;99840.16;5070413;28;20649;-72
2020/12/31 05:15:40;;;;;;;41.58;21.92;;;;;;;2.59;83.20;99841.00;5071122;28;20040;-71
2020/12/31 05:18:17;;;;;;;47.95;21.38;;;;;;;2.62;83.06;99847.78;5070916;28;20481;-71
2020/12/31 05:20:46;;;;;;;44.67;22.67;;;;;;;2.60;83.46;99847.94;5070252;28;20134;-71
2020/12/31 05:23:12;;;;;;;44.63;24.27;;;;;;;2.58;83.72;99843.78;5070954;28;20362;-71
2020/12/31 05:25:37;;;;;;;44.78;23.63;;;;;;;2.59;83.74;99848.06;5070011;28;20457;-72
2020/12/31 05:28:20;;;;;;;43.97;21.80;;;;;;;2.53;83.58;99842.38;5069874;28;20047;-72
2020/12/31 05:30:45;;;;;;;43.00;25.15;;;;;;;2.50;83.43;99842.59;5053640;28;20139;-72
2020/12/31 05:33:10;;;;;;;47.87;22.67;;;;;;;2.56;83.30;99848.34;5070997;28;20041;-71
2020/12/31 05:35:36;;;;;;;39.07;21.73;;;;;;;2.54;83.28;99844.03;5074399;28;20037;-71
2020/12/31 05:38:18;;;;;;;44.40;22.67;;;;;;;2.51;83.47;99844.28;5076510;28;20043;-71
2020/12/31 05:40:57;;;;;;;47.92;23.60;;;;;;;2.49;83.65;99848.84;5077536;28;20127;-71
2020/12/31 05:43:22;;;;;;;43.63;23.05;;;;;;;2.51;83.68;99859.28;5076676;28;20124;-71
2020/12/31 05:46:02;;;;;;;47.87;25.33;;;;;;;2.47;83.56;99848.16;5077601;28;20067;-71
2020/12/31 05:48:28;;;;;;;51.58;24.52;;;;;;;2.46;83.35;99849.13;5076591;28;20078;-71
2020/12/31 05:50:53;;;;;;;51.40;26.07;;;;;;;2.50;83.64;99855.78;5076679;28;20040;-71
2020/12/31 05:53:23;;;;;;;51.37;23.87;;;;;;;2.44;83.55;99843.16;5076541;28;20059;-71
2020/12/31 05:55:56;;;;;;;47.95;24.60;;;;;;;2.39;83.53;99844.50;5077313;28;20489;-71
2020/12/31 05:58:23;;;;;;;46.25;23.48;;;;;;;2.38;83.64;99853.38;5077418;28;20461;-71
2020/12/31 06:01:01;;;;;;;46.33;22.55;;;;;;;2.39;83.19;99857.66;5077389;28;20052;-71
2020/12/31 06:03:37;;;;;;;45.38;23.27;;;;;;;2.36;83.10;99855.31;5077289;28;20048;-71
2020/12/31 06:06:06;;;;;;;51.10;26.57;;;;;;;2.35;83.03;99858.94;5076312;28;20048;-71
2020/12/31 06:08:33;;;;;;;50.45;23.85;;;;;;;2.31;83.19;99859.16;5076548;28;20047;-71
2020/12/31 06:11:02;;;;;;;;;;;;;;;2.37;83.55;99872.81;5076917;28;20040;-71
2020/12/31 06:13:37;;;;;;;50.30;27.30;;;;;;;2.31;83.45;99866.25;5076463;28;19916;-71
2020/12/31 06:16:03;;;;;;;50.05;25.38;;;;;;;2.30;83.33;99865.41;5077127;28;20127;-71
2020/12/31 06:18:33;;;;;;;;;;;;;;;2.27;83.89;99862.19;5076989;28;20418;-71
2020/12/31 06:21:02;;;;;;;48.72;26.27;;;;;;;2.23;83.76;99866.91;5076482;28;19938;-71
2020/12/31 06:23:37;;;;;;;48.85;25.90;;;;;;;2.26;83.79;99865.81;5074547;28;20044;-71
2020/12/31 06:26:12;;;;;;;53.25;25.60;;;;;;;2.28;83.64;99863.88;5075271;28;20438;-71
2020/12/31 06:28:44;;;;;;;46.17;24.80;;;;;;;2.26;83.30;99855.28;5075428;28;20127;-71
2020/12/31 06:31:10;;;;;;;45.15;26.30;;;;;;;2.26;83.63;99868.44;5075102;28;20048;-71
2020/12/31 06:33:48;;;;;;;47.88;24.67;;;;;;;2.26;83.84;99865.81;5074831;28;20094;-71
2020/12/31 06:36:14;;;;;;;49.13;25.58;;;;;;;2.30;83.69;99869.84;5058517;28;20091;-71
2020/12/31 06:38:48;;;;;;;49.30;24.55;;;;;;;2.24;83.96;99865.94;5076044;28;20036;-71
2020/12/31 06:41:33;;;;;;;50.88;25.27;;;;;;;2.27;84.06;99872.72;5076023;28;20055;-71
2020/12/31 06:44:20;;;;;;;55.08;25.42;;;;;;;2.23;83.97;99866.06;5068873;28;20052;-71
2020/12/31 06:46:49;;;;;;;54.53;26.58;;;;;;;2.20;83.99;99875.06;5075388;28;20055;-71
2020/12/31 06:49:16;;;;;;;58.63;27.38;;;;;;;2.23;84.14;99877.44;5073672;28;20068;-71
2020/12/31 06:51:42;;;;;;;;;;;;;;;2.17;84.30;99874.47;5073488;28;20044;-71
2020/12/31 06:54:07;;;;;;;;;;;;;;;2.17;84.52;99877.13;5074363;28;19927;-71
2020/12/31 06:56:48;;;;;;;59.73;27.13;;;;;;;2.13;84.05;99884.47;5072503;28;20345;-70
2020/12/31 06:59:34;;;;;;;53.80;26.35;;;;;;;2.13;84.25;99881.81;5073314;28;20283;-71
2020/12/31 07:02:18;;;;;;;49.97;23.60;;;;;;;2.15;84.46;99879.03;5073595;28;20047;-71
2020/12/31 07:04:43;;;;;;;57.97;25.83;;;;;;;2.16;84.48;99880.72;5072848;28;20032;-71
2020/12/31 07:07:18;;;;;;;55.60;26.57;;;;;;;2.08;84.66;99894.53;5072244;28;20480;-70
2020/12/31 07:09:50;;;;;;;49.45;25.50;;;;;;;2.08;84.69;99890.13;5072965;28;20040;-70
2020/12/31 07:12:15;;;;;;;49.58;24.02;;;;;;;2.09;84.68;99888.31;5072408;28;20045;-71
2020/12/31 07:14:41;;;;;;;57.27;28.03;;;;;;;2.07;84.77;99888.44;5073537;28;20301;-71
2020/12/31 07:17:09;;;;;;;61.87;26.57;;;;;;;2.10;84.89;99889.97;5072873;28;20135;-71
2020/12/31 07:19:45;;;;;;;53.55;25.20;;;;;;;2.09;84.64;99894.41;5072343;28;20072;-71
2020/12/31 07:22:10;;;;;;;57.00;26.02;;;;;;;2.09;84.94;99898.84;5073740;28;20036;-71
2020/12/31 07:24:49;;;;;;;52.87;26.93;;;;;;;2.06;84.82;99891.19;5073192;28;20055;-71
2020/12/31 07:27:28;;;;;;;59.75;27.73;;;;;;;2.08;84.91;99900.66;5054980;28;20036;-71
2020/12/31 07:30:02;;;;;;;51.08;24.75;;;;;;;2.06;84.87;99886.78;5072242;28;20437;-71
2020/12/31 07:33:08;;;;;;;61.63;25.85;;;;;;;2.08;84.88;99891.88;5073021;28;20051;-71
2020/12/31 07:35:34;;;;;;;;;;;;;;;2.09;84.68;99893.56;5034675;28;20179;-71
2020/12/31 07:38:14;;;;;;;55.60;28.45;;;;;;;2.10;84.42;99903.97;5050518;28;19927;-71
2020/12/31 07:40:44;;;;;;;49.85;26.40;;;;;;;2.07;84.70;99904.22;5054355;28;20040;-71
2020/12/31 07:43:26;;;;;;;53.40;28.67;;;;;;;2.06;84.97;99902.56;5072579;28;20040;-71
2020/12/31 07:45:56;;;;;;;58.97;29.27;;;;;;;2.02;84.90;99911.69;5071693;28;20041;-71
2020/12/31 07:48:23;;;;;;;61.85;31.33;;;;;;;2.00;85.16;99912.78;5071614;28;20032;-71
2020/12/31 07:51:07;;;;;;;59.47;28.55;;;;;;;2.00;85.37;99910.13;5072852;28;20534;-70
2020/12/31 07:53:35;;;;;;;64.18;29.73;;;;;;;1.99;85.06;99911.94;5071595;28;20355;-71
2020/12/31 07:56:00;;;;;;;59.70;27.92;;;;;;;1.99;85.31;99909.31;5069330;28;20115;-71
2020/12/31 07:58:28;;;;;;;60.40;28.42;;;;;;;2.03;85.12;99917.78;5068823;28;20580;-71
2020/12/31 08:01:05;;;;;;;59.63;27.63;;;;;;;2.00;85.22;99912.78;5069634;28;20036;-71
2020/12/31 08:03:30;;;;;;;52.75;24.88;;;;;;;1.99;84.94;99909.31;5069309;28;20075;-71
2020/12/31 08:06:03;;;;;;;55.17;27.10;;;;;;;2.03;85.10;99913.34;5068290;28;20066;-71
2020/12/31 08:08:29;;;;;;;59.55;27.23;;;;;;;1.98;84.49;99906.78;5068737;28;20038;-71
2020/12/31 08:10:55;;;;;;;52.80;25.27;;;;;;;2.00;84.63;99910.97;5071900;28;20458;-71
2020/12/31 08:13:21;;;;;;;51.25;25.55;;;;;;;2.00;84.70;99916.22;5072362;28;20039;-71
2020/12/31 08:15:50;;;;;;;51.42;26.23;;;;;;;2.02;84.88;99906.41;5072119;28;20036;-71
2020/12/31 08:18:16;;;;;;;50.33;24.55;;;;;;;2.02;84.73;99921.38;5070974;28;20428;-71
2020/12/31 08:20:42;;;;;;;57.00;27.52;;;;;;;1.97;84.40;99911.22;5071324;28;20056;-71
2020/12/31 08:23:16;;;;;;;55.33;27.90;;;;;;;1.99;84.64;99913.72;5071856;28;20591;-71
2020/12/31 08:25:43;;;;;;;59.33;29.63;;;;;;;1.97;84.36;99913.88;5071913;28;20041;-71
2020/12/31 08:28:08;;;;;;;56.75;26.83;;;;;;;1.93;84.60;99922.97;5071012;28;20347;-71
2020/12/31 08:30:36;;;;;;;64.90;29.87;;;;;;;1.96;84.83;99920.06;5071194;28;20048;-71
2020/12/31 08:33:02;;;;;;;55.30;26.70;;;;;;;1.98;84.80;99915.53;5071949;28;20119;-71
2020/12/31 08:35:30;;;;;;;58.72;29.67;;;;;;;1.94;84.67;99919.38;5070645;28;20045;-71
2020/12/31 08:38:07;;;;;;;52.15;27.40;;;;;;;2.00;84.60;99921.50;5070606;28;20602;-71
2020/12/31 08:40:40;;;;;;;52.47;27.00;;;;;;;1.98;84.32;99920.78;5071762;28;20086;-70
2020/12/31 08:43:08;;;;;;;51.95;25.83;;;;;;;1.97;84.49;99916.50;5071772;28;20036;-71
2020/12/31 08:45:33;;;;;;;54.75;24.63;;;;;;;2.00;84.03;99934.66;5071543;28;20367;-71
2020/12/31 08:48:32;;;;;;;47.60;22.60;;;;;;;1.96;83.74;99932.41;5071602;28;20107;-71
2020/12/31 08:51:11;;;;;;;50.75;24.67;;;;;;;2.01;83.85;99930.22;5059635;28;20056;-71
2020/12/31 08:54:00;;;;;;;47.03;24.10;;;;;;;2.00;84.05;99926.75;5070352;28;20449;-71
2020/12/31 08:56:32;;;;;;;55.13;24.17;;;;;;;1.95;84.04;99936.03;5070257;28;20040;-70
2020/12/31 08:59:12;;;;;;;44.60;22.92;;;;;;;1.93;84.37;99937.94;5071468;28;20052;-71
2020/12/31 09:01:39;;;;;;;48.70;23.92;;;;;;;1.96;84.01;99935.03;5071445;28;20492;-71
2020/12/31 09:04:19;;;;;;;46.78;23.33;;;;;;;2.00;83.94;99939.09;5069932;28;20344;-70
2020/12/31 09:06:46;;;;;;;46.90;24.95;;;;;;;1.94;83.75;99935.16;5069823;28;20041;-71
2020/12/31 09:09:21;;;;;;;49.10;24.83;;;;;;;2.00;83.83;99934.66;5070856;28;20028;-71
2020/12/31 09:11:59;;;;;;;46.65;22.25;;;;;;;1.94;83.85;99929.88;5071055;28;20059;-71
2020/12/31 09:14:30;;;;;;;47.10;24.02;;;;;;;1.95;83.91;99942.09;5070277;28;20040;-70
2020/12/31 09:16:55;;;;;;;52.15;22.73;;;;;;;1.92;84.01;99941.50;5070033;28;20036;-72
2020/12/31 09:19:21;;;;;;;52.65;24.67;;;;;;;1.94;84.16;99943.06;5071033;28;20526;-71
2020/12/31 09:21:47;;;;;;;56.60;25.60;;;;;;;1.95;84.10;99936.84;5070394;28;20040;-71
2020/12/31 09:24:20;;;;;;;49.50;23.37;;;;;;;1.99;83.76;99940.91;5070431;28;20469;-71
2020/12/31 09:26:55;;;;;;;45.13;23.35;;;;;;;2.02;83.83;99940.63;5070572;28;20735;-70
2020/12/31 09:29:21;;;;;;;48.30;23.65;;;;;;;2.08;84.19;99940.16;5071242;28;20041;-71
2020/12/31 09:31:47;;;;;;;49.50;25.20;;;;;;;2.05;84.03;99942.19;5070940;28;20082;-71
2020/12/31 09:34:12;;;;;;;45.03;23.48;;;;;;;2.08;84.08;99934.88;5071053;28;20362;-71
2020/12/31 09:36:38;;;;;;;46.47;21.45;;;;;;;2.10;83.48;99937.34;5069677;28;20033;-71
2020/12/31 09:39:05;;;;;;;46.10;22.40;;;;;;;2.11;83.19;99946.94;5070096;28;20044;-71
2020/12/31 09:41:30;;;;;;;43.40;23.63;;;;;;;2.13;83.00;99941.53;5070827;28;20070;-71
2020/12/31 09:43:55;;;;;;;42.87;21.23;;;;;;;2.08;83.51;99948.03;5070023;28;20044;-71
2020/12/31 09:46:21;;;;;;;48.00;22.37;;;;;;;2.17;83.47;99953.50;5070509;28;20028;-70
2020/12/31 09:48:48;;;;;;;43.58;22.40;;;;;;;2.16;82.78;99954.47;5070831;28;20032;-71
2020/12/31 09:51:13;;;;;;;42.15;20.67;;;;;;;2.16;82.91;99955.28;5070951;28;20032;-71
2020/12/31 09:53:39;;;;;;;40.47;20.00;;;;;;;2.14;82.80;99951.13;5070838;28;20043;-71
2020/12/31 09:56:05;;;;;;;49.83;22.15;;;;;;;2.12;83.07;99959.13;5070663;28;20266;-71
2020/12/31 09:58:30;;;;;;;42.60;22.97;;;;;;;2.12;82.91;99948.59;5069852;28;20043;-71
2020/12/31 10:00:56;;;;;;;41.33;21.47;;;;;;;2.17;83.16;99961.38;5069657;28;20274;-71
2020/12/31 10:03:21;;;;;;;40.55;20.52;;;;;;;2.22;83.28;99960.03;5069758;28;20504;-71
2020/12/31 10:05:46;;;;;;;41.67;20.97;;;;;;;2.20;82.70;99961.13;5052906;28;20059;-71
2020/12/31 10:08:11;;;;;;;39.57;20.60;;;;;;;2.16;82.80;99957.94;5070575;28;20044;-71
2020/12/31 10:10:37;;;;;;;42.60;20.70;;;;;;;2.19;83.05;99954.19;5070780;28;20060;-71
2020/12/31 10:13:02;;;;;;;39.33;19.17;;;;;;;2.19;83.14;99956.84;5069710;28;20466;-71
2020/12/31 10:15:27;;;;;;;42.20;20.03;;;;;;;2.17;83.02;99951.69;5070597;28;20123;-70
2020/12/31 10:17:53;;;;;;;44.10;21.30;;;;;;;2.24;82.97;99958.09;5070441;28;20119;-70
2020/12/31 10:20:18;;;;;;;46.80;20.75;;;;;;;2.27;82.94;99957.00;5069631;28;20043;-71
2020/12/31 10:22:44;;;;;;;45.87;21.00;;;;;;;2.18;83.04;99958.63;5056219;28;20054;-71
2020/12/31 10:25:09;;;;;;;41.07;20.10;;;;;;;2.22;82.93;99954.75;5073554;28;20123;-71
2020/12/31 10:27:34;;;;;;;37.77;19.97;;;;;;;2.28;82.96;99958.69;5056499;28;20124;-71
2020/12/31 10:30:00;;;;;;;36.50;20.53;;;;;;;2.29;82.82;99955.09;5073257;28;20757;-71
2020/12/31 10:32:26;;;;;;;36.45;18.65;;;;;;;2.32;82.86;99960.94;5056767;28;20127;-71
2020/12/31 10:34:51;;;;;;;39.50;19.13;;;;;;;2.32;82.50;99960.13;5073240;28;20040;-71
2020/12/31 10:37:16;;;;;;;34.73;18.33;;;;;;;2.25;82.21;99965.06;5056276;28;20044;-71
2020/12/31 10:39:42;;;;;;;34.77;18.93;;;;;;;2.29;82.06;99957.72;5074011;28;20040;-70
2020/12/31 10:42:07;;;;;;;32.80;16.43;;;;;;;2.24;80.64;99955.47;5074144;28;20040;-71
2020/12/31 10:44:32;;;;;;;32.00;16.60;;;;;;;2.29;80.81;99960.34;5073977;28;20036;-71
2020/12/31 10:46:58;;;;;;;30.63;16.20;;;;;;;2.33;81.00;99951.25;5073778;28;20105;-71
2020/12/31 10:49:23;;;;;;;27.93;16.07;;;;;;;2.28;80.58;99956.91;5073879;28;20407;-71
2020/12/31 10:51:49;;;;;;;29.50;14.60;;;;;;;2.29;80.53;99952.47;5072812;28;20278;-71
2020/12/31 10:54:14;;;;;;;25.00;13.63;;;;;;;2.27;80.63;99949.13;5072872;28;20522;-71
2020/12/31 10:56:39;;;;;;;26.93;13.40;;;;;;;2.35;80.63;99953.75;5073607;28;20056;-71
2020/12/31 10:59:05;;;;;;;24.07;12.07;;;;;;;2.34;80.95;99947.63;5072580;28;20409;-71
2020/12/31 11:01:30;;;;;;;24.80;12.90;;;;;;;2.42;80.13;99949.63;5073796;28;20492;-71
2020/12/31 11:03:56;;;;;;;18.87;9.77;;;;;;;2.44;79.49;99950.34;5073503;28;20040;-71
2020/12/31 11:06:24;;;;;;;17.98;9.95;;;;;;;2.43;79.45;99952.13;5072446;28;20040;-71
2020/12/31 11:08:50;;;;;;;18.45;10.93;;;;;;;2.43;79.44;99952.13;5073507;28;20036;-71
2020/12/31 11:11:16;;;;;;;19.92;11.25;;;;;;;2.34;79.63;99950.25;5073548;28;20059;-71
2020/12/31 11:13:42;;;;;;;18.83;11.20;;;;;;;2.41;79.75;99947.94;5073311;28;20044;-65
2020/12/31 11:16:08;;;;;;;19.48;10.57;;;;;;;2.42;79.49;99954.91;5073184;28;20063;-65
2020/12/31 11:18:33;;;;;;;18.85;10.75;;;;;;;2.37;79.26;99946.56;5055687;28;20035;-65
2020/12/31 11:20:59;;;;;;;20.77;10.97;;;;;;;2.39;79.38;99945.47;5072529;28;20417;-65
2020/12/31 11:23:24;;;;;;;14.80;9.57;;;;;;;2.32;79.36;99944.31;5073135;28;20519;-65
2020/12/31 11:25:49;;;;;;;14.13;8.90;;;;;;;2.27;79.15;99946.47;5071883;28;20044;-65
2020/12/31 11:28:14;;;;;;;14.40;8.80;;;;;;;2.32;79.40;99936.41;5073034;28;20032;-65
2020/12/31 11:30:40;;;;;;;16.30;9.20;;;;;;;2.29;79.55;99940.16;5073184;28;20041;-65
2020/12/31 11:33:05;;;;;;;15.80;8.90;;;;;;;2.32;79.49;99949.59;5072319;28;20090;-65